Charlevoix, MI

5:55 PM EST on December 08, 2016 (GMT -0500)
1.5 W Ironton | | Change Station
Active Advisory: Winter Storm Warning

Elev 750 ft 45.26 °N, 85.22 °W | Updated 13 seconds ago

Mostly Cloudy
Mostly Cloudy
29.5 °F
Feels Like 30 °F
N
1.0
Wind Variable Wind from ENE
Gusts 11.0 mph

Today
High -- | Low -- °F
--% Chance of Precip.
Yesterday
High -- | Low -- °F
Precip. -- in
Pressure 30.12 in
Visibility 10.0 miles
Clouds Scattered Clouds 2900 ft
Scattered Clouds 3800 ft
Mostly Cloudy 4700 ft
Windchill 30 °F
Dew Point 22 °F
Humidity 73%
Rainfall 0.00 in
Snow Depth Not available.
8:08 AM 4:58 PM
Waxing Gibbous, 67% visible
METAR KCVX 082235Z AUTO 32016G23KT 10SM SCT029 SCT038 BKN047 00/M06 A3012 RMK AO2 T10051060
Pressure 30.12 in
Visibility 10.0 miles
Clouds Scattered Clouds 2900 ft
Scattered Clouds 3800 ft
Mostly Cloudy 4700 ft
Windchill 30 °F
Dew Point 22 °F
Humidity 73%
Rainfall 0.00 in
Snow Depth Not available.
8:08 AM 4:58 PM
Waxing Gibbous, 67% visible
METAR KCVX 082235Z AUTO 32016G23KT 10SM SCT029 SCT038 BKN047 00/M06 A3012 RMK AO2 T10051060

10-Day Weather Forecast

Almanac

Astronomy

Dec. 08, 2016 Rise Set
Actual Time
Civil Twilight
Nautical Twilight
Astronomical Twilight
Moon
Length of Visible Light
Length of Day
Tomorrow will be .
, % of the Moon is Illuminated

Today's Extremes

State Highs State Lows

Community

WunderPhotos

Upload Photos

1,956,277 photos uploaded!

WunderBlog® & News

Nearby

Air Quality

  Air Quality AQ Index Pollutant
Not available.

Snow Depth

Station Depth Elevation

Earthquake Activity

City Distance Mag. Time & Date
Minimum magnitude displayed is 2.5.

Coastal Water Temperatures

Place Temperature

Stations

Nearby Weather Stations

Station Location Temp. Windchill Dew Point Humidity Wind Precip. Elev Updated Type
                   

Watches & Warnings

Winter Storm Warning
Issued: 4:14 PM EST Dec. 8, 2016 – National Weather Service

... Winter Storm Warning remains in effect until 3 PM EST Friday...

* periods of lake effect snow showers through Friday.

* The heaviest snowfall rates will occur through Friday morning.

* Total snow accumulations of 8 to 14 inches are expected.

* Areas of blowing snow are also expected.

* Look for significant reductions in visibility at times.

* Plan on difficult driving conditions... including during the
evening commute.

Precautionary/preparedness actions...

A Winter Storm Warning for snow means severe winter weather
conditions are expected. If you must travel... keep an extra
flashlight... food... and water in your vehicle in case of an
emergency. For the latest Road conditions... go to the mdot
website at Michigan.Gov.